sensor_id;sensor_type;location;lat;lon;timestamp;P1;durP1;ratioP1;P2;durP2;ratioP2
17133;SDS011;8682;52.120;5.252;2023-03-17T00:00:46;9.77;;;9.27;;
17133;SDS011;8682;52.120;5.252;2023-03-17T00:03:15;10.43;;;9.87;;
17133;SDS011;8682;52.120;5.252;2023-03-17T02:58:56;7.67;;;7.17;;
17133;SDS011;8682;52.120;5.252;2023-03-17T03:01:25;7.90;;;7.40;;
17133;SDS011;8682;52.120;5.252;2023-03-17T03:03:53;7.77;;;7.10;;
17133;SDS011;8682;52.120;5.252;2023-03-17T03:06:22;7.50;;;7.00;;
17133;SDS011;8682;52.120;5.252;2023-03-17T03:08:50;8.23;;;7.73;;
17133;SDS011;8682;52.120;5.252;2023-03-17T03:11:17;9.10;;;8.40;;
17133;SDS011;8682;52.120;5.252;2023-03-17T03:13:45;8.77;;;8.17;;
17133;SDS011;8682;52.120;5.252;2023-03-17T03:16:22;9.07;;;8.47;;
17133;SDS011;8682;52.120;5.252;2023-03-17T03:18:50;7.83;;;7.40;;
17133;SDS011;8682;52.120;5.252;2023-03-17T03:21:17;8.20;;;7.70;;
17133;SDS011;8682;52.120;5.252;2023-03-17T03:23:44;8.97;;;8.40;;
17133;SDS011;8682;52.120;5.252;2023-03-17T03:26:11;9.07;;;8.37;;
17133;SDS011;8682;52.120;5.252;2023-03-17T03:28:39;9.10;;;8.47;;
17133;SDS011;8682;52.120;5.252;2023-03-17T03:31:06;9.23;;;8.50;;
17133;SDS011;8682;52.120;5.252;2023-03-17T03:33:34;9.17;;;8.67;;
17133;SDS011;8682;52.120;5.252;2023-03-17T03:36:02;8.97;;;8.37;;
17133;SDS011;8682;52.120;5.252;2023-03-17T03:38:29;9.17;;;8.67;;
17133;SDS011;8682;52.120;5.252;2023-03-17T03:40:56;9.87;;;8.73;;
17133;SDS011;8682;52.120;5.252;2023-03-17T03:43:23;8.97;;;8.43;;
17133;SDS011;8682;52.120;5.252;2023-03-17T03:45:51;8.23;;;7.50;;
17133;SDS011;8682;52.120;5.252;2023-03-17T03:48:18;8.93;;;8.33;;
17133;SDS011;8682;52.120;5.252;2023-03-17T03:50:47;9.10;;;8.40;;
17133;SDS011;8682;52.120;5.252;2023-03-17T03:53:14;9.73;;;9.17;;
17133;SDS011;8682;52.120;5.252;2023-03-17T03:55:41;8.33;;;7.80;;
17133;SDS011;8682;52.120;5.252;2023-03-17T03:58:11;9.77;;;9.07;;
17133;SDS011;8682;52.120;5.252;2023-03-17T04:00:40;9.03;;;8.53;;
17133;SDS011;8682;52.120;5.252;2023-03-17T04:03:07;10.03;;;9.07;;
17133;SDS011;8682;52.120;5.252;2023-03-17T04:05:34;9.97;;;9.17;;
17133;SDS011;8682;52.120;5.252;2023-03-17T04:08:03;9.63;;;8.93;;
17133;SDS011;8682;52.120;5.252;2023-03-17T04:10:30;9.77;;;8.93;;
17133;SDS011;8682;52.120;5.252;2023-03-17T04:12:58;10.63;;;9.60;;
17133;SDS011;8682;52.120;5.252;2023-03-17T04:15:25;8.97;;;8.37;;
17133;SDS011;8682;52.120;5.252;2023-03-17T04:17:52;9.23;;;8.60;;
17133;SDS011;8682;52.120;5.252;2023-03-17T04:20:20;9.10;;;8.50;;
17133;SDS011;8682;52.120;5.252;2023-03-17T04:22:47;9.57;;;8.87;;
17133;SDS011;8682;52.120;5.252;2023-03-17T04:25:15;9.33;;;8.67;;
17133;SDS011;8682;52.120;5.252;2023-03-17T04:27:42;9.17;;;8.57;;
17133;SDS011;8682;52.120;5.252;2023-03-17T04:30:10;9.33;;;8.73;;
17133;SDS011;8682;52.120;5.252;2023-03-17T04:32:38;8.60;;;8.03;;
17133;SDS011;8682;52.120;5.252;2023-03-17T04:35:06;9.43;;;8.73;;
17133;SDS011;8682;52.120;5.252;2023-03-17T04:37:35;9.23;;;8.63;;
17133;SDS011;8682;52.120;5.252;2023-03-17T04:40:03;10.07;;;9.17;;
17133;SDS011;8682;52.120;5.252;2023-03-17T04:42:31;9.20;;;8.43;;
17133;SDS011;8682;52.120;5.252;2023-03-17T04:45:00;9.27;;;8.67;;
17133;SDS011;8682;52.120;5.252;2023-03-17T04:47:27;9.43;;;8.73;;
17133;SDS011;8682;52.120;5.252;2023-03-17T04:49:55;9.63;;;8.93;;
17133;SDS011;8682;52.120;5.252;2023-03-17T04:52:22;9.83;;;9.23;;
17133;SDS011;8682;52.120;5.252;2023-03-17T04:54:49;9.50;;;8.90;;
17133;SDS011;8682;52.120;5.252;2023-03-17T04:57:17;9.83;;;9.23;;
17133;SDS011;8682;52.120;5.252;2023-03-17T04:59:46;10.17;;;9.37;;
17133;SDS011;8682;52.120;5.252;2023-03-17T05:02:13;9.77;;;8.97;;
17133;SDS011;8682;52.120;5.252;2023-03-17T05:04:40;8.30;;;7.70;;
17133;SDS011;8682;52.120;5.252;2023-03-17T05:07:08;9.47;;;8.87;;
17133;SDS011;8682;52.120;5.252;2023-03-17T05:09:36;9.50;;;8.77;;
17133;SDS011;8682;52.120;5.252;2023-03-17T05:12:03;8.67;;;7.97;;
17133;SDS011;8682;52.120;5.252;2023-03-17T05:14:31;10.00;;;9.30;;
17133;SDS011;8682;52.120;5.252;2023-03-17T05:16:59;9.33;;;8.60;;
17133;SDS011;8682;52.120;5.252;2023-03-17T05:19:26;9.77;;;9.17;;
17133;SDS011;8682;52.120;5.252;2023-03-17T05:21:54;9.17;;;8.47;;
17133;SDS011;8682;52.120;5.252;2023-03-17T05:24:21;9.67;;;8.97;;
17133;SDS011;8682;52.120;5.252;2023-03-17T05:26:48;9.43;;;8.80;;
17133;SDS011;8682;52.120;5.252;2023-03-17T05:29:15;10.00;;;9.13;;
17133;SDS011;8682;52.120;5.252;2023-03-17T05:31:43;8.50;;;7.90;;
17133;SDS011;8682;52.120;5.252;2023-03-17T05:34:11;9.80;;;9.07;;
17133;SDS011;8682;52.120;5.252;2023-03-17T05:36:39;9.57;;;8.97;;
17133;SDS011;8682;52.120;5.252;2023-03-17T05:39:06;10.27;;;9.57;;
17133;SDS011;8682;52.120;5.252;2023-03-17T05:41:33;10.00;;;9.40;;
17133;SDS011;8682;52.120;5.252;2023-03-17T05:44:00;9.40;;;8.80;;
17133;SDS011;8682;52.120;5.252;2023-03-17T05:46:28;8.40;;;7.80;;
17133;SDS011;8682;52.120;5.252;2023-03-17T05:48:56;9.77;;;9.10;;
17133;SDS011;8682;52.120;5.252;2023-03-17T05:51:25;63.83;;;46.53;;
17133;SDS011;8682;52.120;5.252;2023-03-17T05:53:52;22.53;;;19.77;;
17133;SDS011;8682;52.120;5.252;2023-03-17T05:56:20;10.87;;;10.13;;
17133;SDS011;8682;52.120;5.252;2023-03-17T05:58:47;36.00;;;31.00;;
17133;SDS011;8682;52.120;5.252;2023-03-17T06:01:14;58.13;;;47.60;;
17133;SDS011;8682;52.120;5.252;2023-03-17T06:03:41;48.87;;;35.57;;
17133;SDS011;8682;52.120;5.252;2023-03-17T06:06:09;73.83;;;65.67;;
17133;SDS011;8682;52.120;5.252;2023-03-17T06:08:38;33.17;;;29.00;;
17133;SDS011;8682;52.120;5.252;2023-03-17T06:11:05;49.97;;;38.33;;
17133;SDS011;8682;52.120;5.252;2023-03-17T06:13:32;199.03;;;144.37;;
17133;SDS011;8682;52.120;5.252;2023-03-17T06:15:59;56.50;;;46.93;;
17133;SDS011;8682;52.120;5.252;2023-03-17T06:18:29;97.73;;;73.30;;
17133;SDS011;8682;52.120;5.252;2023-03-17T06:20:56;52.17;;;43.87;;
17133;SDS011;8682;52.120;5.252;2023-03-17T06:23:23;114.70;;;86.13;;
17133;SDS011;8682;52.120;5.252;2023-03-17T06:25:52;21.17;;;18.47;;
17133;SDS011;8682;52.120;5.252;2023-03-17T06:28:19;17.20;;;13.43;;
17133;SDS011;8682;52.120;5.252;2023-03-17T06:30:47;21.07;;;19.00;;
17133;SDS011;8682;52.120;5.252;2023-03-17T06:33:14;8.47;;;7.87;;
17133;SDS011;8682;52.120;5.252;2023-03-17T06:35:43;8.70;;;8.00;;
17133;SDS011;8682;52.120;5.252;2023-03-17T06:38:10;10.97;;;10.23;;
17133;SDS011;8682;52.120;5.252;2023-03-17T06:40:37;8.13;;;7.53;;
17133;SDS011;8682;52.120;5.252;2023-03-17T06:43:06;10.03;;;9.00;;
17133;SDS011;8682;52.120;5.252;2023-03-17T06:45:34;11.93;;;11.17;;
17133;SDS011;8682;52.120;5.252;2023-03-17T06:48:01;9.33;;;8.63;;
17133;SDS011;8682;52.120;5.252;2023-03-17T06:50:28;14.47;;;13.27;;
17133;SDS011;8682;52.120;5.252;2023-03-17T06:52:56;8.93;;;8.20;;
17133;SDS011;8682;52.120;5.252;2023-03-17T06:55:27;8.33;;;7.53;;
17133;SDS011;8682;52.120;5.252;2023-03-17T06:57:55;9.30;;;8.47;;
17133;SDS011;8682;52.120;5.252;2023-03-17T07:00:24;9.17;;;8.53;;
17133;SDS011;8682;52.120;5.252;2023-03-17T07:02:52;8.70;;;8.00;;
17133;SDS011;8682;52.120;5.252;2023-03-17T07:05:22;9.80;;;8.90;;
17133;SDS011;8682;52.120;5.252;2023-03-17T07:07:50;9.87;;;9.17;;
17133;SDS011;8682;52.120;5.252;2023-03-17T07:10:19;10.50;;;9.70;;
17133;SDS011;8682;52.120;5.252;2023-03-17T07:12:52;9.47;;;8.73;;
17133;SDS011;8682;52.120;5.252;2023-03-17T07:15:22;9.53;;;8.93;;
17133;SDS011;8682;52.120;5.252;2023-03-17T07:17:52;9.80;;;9.00;;
17133;SDS011;8682;52.120;5.252;2023-03-17T07:20:31;10.73;;;8.93;;
17133;SDS011;8682;52.120;5.252;2023-03-17T07:23:03;9.47;;;8.67;;
17133;SDS011;8682;52.120;5.252;2023-03-17T07:25:32;9.73;;;8.77;;
17133;SDS011;8682;52.120;5.252;2023-03-17T07:28:06;8.87;;;8.20;;
17133;SDS011;8682;52.120;5.252;2023-03-17T07:30:33;9.47;;;8.57;;
17133;SDS011;8682;52.120;5.252;2023-03-17T07:33:05;11.13;;;10.33;;
17133;SDS011;8682;52.120;5.252;2023-03-17T07:35:32;10.07;;;9.20;;
17133;SDS011;8682;52.120;5.252;2023-03-17T07:38:00;10.03;;;9.13;;
17133;SDS011;8682;52.120;5.252;2023-03-17T07:40:34;9.33;;;8.73;;
17133;SDS011;8682;52.120;5.252;2023-03-17T07:43:05;9.40;;;8.67;;
17133;SDS011;8682;52.120;5.252;2023-03-17T07:45:43;9.03;;;8.43;;
17133;SDS011;8682;52.120;5.252;2023-03-17T07:48:20;9.23;;;8.43;;
17133;SDS011;8682;52.120;5.252;2023-03-17T07:51:24;8.43;;;7.67;;
17133;SDS011;8682;52.120;5.252;2023-03-17T07:53:53;8.43;;;7.83;;
17133;SDS011;8682;52.120;5.252;2023-03-17T07:56:30;9.40;;;8.80;;
17133;SDS011;8682;52.120;5.252;2023-03-17T07:58:58;8.43;;;7.83;;
17133;SDS011;8682;52.120;5.252;2023-03-17T08:01:41;8.63;;;8.00;;
17133;SDS011;8682;52.120;5.252;2023-03-17T08:04:14;8.80;;;8.00;;
17133;SDS011;8682;52.120;5.252;2023-03-17T08:06:41;9.03;;;8.37;;
17133;SDS011;8682;52.120;5.252;2023-03-17T08:09:12;8.57;;;8.00;;
17133;SDS011;8682;52.120;5.252;2023-03-17T08:11:39;9.60;;;8.70;;
17133;SDS011;8682;52.120;5.252;2023-03-17T08:14:08;9.23;;;8.53;;
17133;SDS011;8682;52.120;5.252;2023-03-17T08:16:35;9.30;;;8.53;;
17133;SDS011;8682;52.120;5.252;2023-03-17T08:19:03;9.77;;;9.03;;
17133;SDS011;8682;52.120;5.252;2023-03-17T08:21:34;9.63;;;8.73;;
17133;SDS011;8682;52.120;5.252;2023-03-17T08:24:01;9.77;;;9.07;;
17133;SDS011;8682;52.120;5.252;2023-03-17T08:26:31;10.47;;;9.53;;
17133;SDS011;8682;52.120;5.252;2023-03-17T08:28:58;10.87;;;9.73;;
17133;SDS011;8682;52.120;5.252;2023-03-17T08:31:26;10.60;;;9.90;;
17133;SDS011;8682;52.120;5.252;2023-03-17T08:33:53;10.40;;;9.50;;
17133;SDS011;8682;52.120;5.252;2023-03-17T08:36:21;12.13;;;11.33;;
17133;SDS011;8682;52.120;5.252;2023-03-17T08:38:51;12.37;;;11.37;;
17133;SDS011;8682;52.120;5.252;2023-03-17T08:41:23;12.17;;;11.47;;
17133;SDS011;8682;52.120;5.252;2023-03-17T08:43:51;12.93;;;12.03;;
17133;SDS011;8682;52.120;5.252;2023-03-17T08:46:21;12.50;;;11.70;;
17133;SDS011;8682;52.120;5.252;2023-03-17T08:48:50;13.03;;;12.23;;
17133;SDS011;8682;52.120;5.252;2023-03-17T08:51:20;13.83;;;12.93;;
17133;SDS011;8682;52.120;5.252;2023-03-17T08:53:55;13.60;;;12.70;;
17133;SDS011;8682;52.120;5.252;2023-03-17T08:56:24;13.43;;;12.43;;
17133;SDS011;8682;52.120;5.252;2023-03-17T08:58:51;14.73;;;13.73;;
17133;SDS011;8682;52.120;5.252;2023-03-17T09:01:21;15.07;;;14.07;;
17133;SDS011;8682;52.120;5.252;2023-03-17T09:03:49;16.43;;;15.33;;
17133;SDS011;8682;52.120;5.252;2023-03-17T09:06:16;19.50;;;17.97;;
17133;SDS011;8682;52.120;5.252;2023-03-17T09:08:45;19.67;;;18.27;;
17133;SDS011;8682;52.120;5.252;2023-03-17T09:11:21;18.33;;;17.23;;
17133;SDS011;8682;52.120;5.252;2023-03-17T09:13:55;18.30;;;17.10;;
17133;SDS011;8682;52.120;5.252;2023-03-17T09:16:23;17.40;;;16.23;;
17133;SDS011;8682;52.120;5.252;2023-03-17T09:18:54;16.90;;;15.83;;
17133;SDS011;8682;52.120;5.252;2023-03-17T09:21:21;16.57;;;15.17;;
17133;SDS011;8682;52.120;5.252;2023-03-17T09:23:50;15.23;;;14.13;;
17133;SDS011;8682;52.120;5.252;2023-03-17T09:26:17;17.07;;;15.77;;
17133;SDS011;8682;52.120;5.252;2023-03-17T09:28:46;16.70;;;15.40;;
17133;SDS011;8682;52.120;5.252;2023-03-17T09:31:14;15.23;;;14.20;;
17133;SDS011;8682;52.120;5.252;2023-03-17T09:33:41;16.20;;;15.30;;
17133;SDS011;8682;52.120;5.252;2023-03-17T09:36:09;16.70;;;15.53;;
17133;SDS011;8682;52.120;5.252;2023-03-17T09:38:37;16.70;;;15.70;;
17133;SDS011;8682;52.120;5.252;2023-03-17T09:41:10;16.70;;;15.30;;
17133;SDS011;8682;52.120;5.252;2023-03-17T09:43:46;16.03;;;14.93;;
17133;SDS011;8682;52.120;5.252;2023-03-17T09:46:21;17.23;;;15.93;;
17133;SDS011;8682;52.120;5.252;2023-03-17T09:48:54;17.53;;;16.33;;
17133;SDS011;8682;52.120;5.252;2023-03-17T09:51:24;18.50;;;17.20;;
17133;SDS011;8682;52.120;5.252;2023-03-17T09:53:57;17.07;;;15.60;;
17133;SDS011;8682;52.120;5.252;2023-03-17T09:56:25;17.53;;;16.33;;
17133;SDS011;8682;52.120;5.252;2023-03-17T09:58:55;17.43;;;16.13;;
17133;SDS011;8682;52.120;5.252;2023-03-17T10:01:32;17.80;;;16.53;;
17133;SDS011;8682;52.120;5.252;2023-03-17T10:04:01;17.33;;;16.33;;
17133;SDS011;8682;52.120;5.252;2023-03-17T10:06:36;17.53;;;16.43;;
17133;SDS011;8682;52.120;5.252;2023-03-17T10:09:09;17.23;;;15.93;;
17133;SDS011;8682;52.120;5.252;2023-03-17T10:11:39;15.23;;;14.30;;
17133;SDS011;8682;52.120;5.252;2023-03-17T10:14:11;15.27;;;14.03;;
17133;SDS011;8682;52.120;5.252;2023-03-17T10:16:50;13.57;;;12.67;;
17133;SDS011;8682;52.120;5.252;2023-03-17T10:19:23;13.53;;;12.43;;
17133;SDS011;8682;52.120;5.252;2023-03-17T10:21:55;13.67;;;12.60;;
17133;SDS011;8682;52.120;5.252;2023-03-17T10:24:26;12.60;;;11.80;;
17133;SDS011;8682;52.120;5.252;2023-03-17T10:26:56;13.97;;;12.87;;
17133;SDS011;8682;52.120;5.252;2023-03-17T10:29:30;13.10;;;12.20;;
17133;SDS011;8682;52.120;5.252;2023-03-17T10:31:58;13.20;;;12.10;;
17133;SDS011;8682;52.120;5.252;2023-03-17T10:34:29;12.60;;;11.70;;
17133;SDS011;8682;52.120;5.252;2023-03-17T10:37:06;12.00;;;11.20;;
17133;SDS011;8682;52.120;5.252;2023-03-17T10:39:40;12.57;;;11.67;;
17133;SDS011;8682;52.120;5.252;2023-03-17T10:42:09;14.13;;;12.40;;
17133;SDS011;8682;52.120;5.252;2023-03-17T10:44:41;12.63;;;11.73;;
17133;SDS011;8682;52.120;5.252;2023-03-17T10:47:21;13.57;;;12.57;;
17133;SDS011;8682;52.120;5.252;2023-03-17T10:49:49;15.00;;;13.60;;
17133;SDS011;8682;52.120;5.252;2023-03-17T10:52:19;15.13;;;13.93;;
17133;SDS011;8682;52.120;5.252;2023-03-17T10:54:48;16.20;;;15.03;;
17133;SDS011;8682;52.120;5.252;2023-03-17T10:57:16;16.00;;;14.90;;
17133;SDS011;8682;52.120;5.252;2023-03-17T10:59:47;15.47;;;14.47;;
17133;SDS011;8682;52.120;5.252;2023-03-17T11:02:22;17.00;;;15.60;;
17133;SDS011;8682;52.120;5.252;2023-03-17T11:04:52;15.70;;;14.60;;
17133;SDS011;8682;52.120;5.252;2023-03-17T11:07:21;17.60;;;16.40;;
17133;SDS011;8682;52.120;5.252;2023-03-17T11:09:56;16.00;;;14.97;;
17133;SDS011;8682;52.120;5.252;2023-03-17T11:12:26;16.80;;;15.60;;
17133;SDS011;8682;52.120;5.252;2023-03-17T11:14:54;17.30;;;16.20;;
17133;SDS011;8682;52.120;5.252;2023-03-17T11:17:29;18.63;;;17.23;;
17133;SDS011;8682;52.120;5.252;2023-03-17T11:20:02;16.73;;;15.57;;
17133;SDS011;8682;52.120;5.252;2023-03-17T11:22:33;16.23;;;15.03;;
17133;SDS011;8682;52.120;5.252;2023-03-17T11:25:04;17.13;;;16.03;;
17133;SDS011;8682;52.120;5.252;2023-03-17T11:27:37;16.27;;;15.17;;
17133;SDS011;8682;52.120;5.252;2023-03-17T11:30:12;16.87;;;15.67;;
17133;SDS011;8682;52.120;5.252;2023-03-17T11:32:44;16.23;;;14.60;;
17133;SDS011;8682;52.120;5.252;2023-03-17T11:35:18;16.53;;;15.37;;
17133;SDS011;8682;52.120;5.252;2023-03-17T11:40:33;18.30;;;16.93;;
17133;SDS011;8682;52.120;5.252;2023-03-17T11:43:06;17.07;;;15.87;;
17133;SDS011;8682;52.120;5.252;2023-03-17T11:45:41;16.37;;;15.20;;
17133;SDS011;8682;52.120;5.252;2023-03-17T11:48:15;17.80;;;16.40;;
17133;SDS011;8682;52.120;5.252;2023-03-17T11:50:49;17.40;;;15.93;;
17133;SDS011;8682;52.120;5.252;2023-03-17T11:53:22;16.27;;;15.23;;
17133;SDS011;8682;52.120;5.252;2023-03-17T11:55:57;17.17;;;16.00;;
17133;SDS011;8682;52.120;5.252;2023-03-17T11:58:31;16.90;;;15.73;;
17133;SDS011;8682;52.120;5.252;2023-03-17T12:00:59;17.33;;;16.03;;
17133;SDS011;8682;52.120;5.252;2023-03-17T12:03:38;16.93;;;15.80;;
17133;SDS011;8682;52.120;5.252;2023-03-17T12:06:09;17.03;;;15.93;;
17133;SDS011;8682;52.120;5.252;2023-03-17T12:08:47;17.93;;;16.73;;
17133;SDS011;8682;52.120;5.252;2023-03-17T12:11:18;18.30;;;16.80;;
17133;SDS011;8682;52.120;5.252;2023-03-17T12:13:47;18.40;;;17.10;;
17133;SDS011;8682;52.120;5.252;2023-03-17T12:16:18;17.67;;;16.30;;
17133;SDS011;8682;52.120;5.252;2023-03-17T12:18:53;17.80;;;16.30;;
17133;SDS011;8682;52.120;5.252;2023-03-17T12:21:23;18.77;;;17.37;;
17133;SDS011;8682;52.120;5.252;2023-03-17T12:23:53;18.27;;;16.63;;
17133;SDS011;8682;52.120;5.252;2023-03-17T12:26:25;18.60;;;17.30;;
17133;SDS011;8682;52.120;5.252;2023-03-17T12:28:54;18.17;;;16.90;;
17133;SDS011;8682;52.120;5.252;2023-03-17T12:31:24;17.43;;;16.23;;
17133;SDS011;8682;52.120;5.252;2023-03-17T12:33:55;18.67;;;16.90;;
17133;SDS011;8682;52.120;5.252;2023-03-17T12:36:23;19.73;;;18.33;;
17133;SDS011;8682;52.120;5.252;2023-03-17T12:38:51;18.57;;;17.27;;
17133;SDS011;8682;52.120;5.252;2023-03-17T12:41:29;18.30;;;17.00;;
17133;SDS011;8682;52.120;5.252;2023-03-17T12:43:59;17.83;;;16.57;;
17133;SDS011;8682;52.120;5.252;2023-03-17T12:46:29;17.80;;;16.60;;
17133;SDS011;8682;52.120;5.252;2023-03-17T12:51:47;17.83;;;16.30;;
17133;SDS011;8682;52.120;5.252;2023-03-17T12:54:20;18.83;;;17.10;;
17133;SDS011;8682;52.120;5.252;2023-03-17T12:56:51;18.43;;;16.93;;
17133;SDS011;8682;52.120;5.252;2023-03-17T12:59:18;19.17;;;17.63;;
17133;SDS011;8682;52.120;5.252;2023-03-17T13:01:53;18.47;;;17.20;;
17133;SDS011;8682;52.120;5.252;2023-03-17T13:04:22;18.70;;;17.40;;
17133;SDS011;8682;52.120;5.252;2023-03-17T13:06:56;18.57;;;17.37;;
17133;SDS011;8682;52.120;5.252;2023-03-17T13:09:28;17.77;;;16.23;;
17133;SDS011;8682;52.120;5.252;2023-03-17T13:12:00;18.23;;;16.73;;
17133;SDS011;8682;52.120;5.252;2023-03-17T13:14:37;19.10;;;17.80;;
17133;SDS011;8682;52.120;5.252;2023-03-17T13:17:28;18.57;;;17.13;;
17133;SDS011;8682;52.120;5.252;2023-03-17T13:19:58;18.03;;;16.73;;
17133;SDS011;8682;52.120;5.252;2023-03-17T13:22:34;17.57;;;16.27;;
17133;SDS011;8682;52.120;5.252;2023-03-17T13:25:12;17.27;;;15.93;;
17133;SDS011;8682;52.120;5.252;2023-03-17T13:27:42;18.23;;;16.93;;
17133;SDS011;8682;52.120;5.252;2023-03-17T13:32:56;19.43;;;18.03;;
17133;SDS011;8682;52.120;5.252;2023-03-17T13:35:26;18.20;;;17.00;;
17133;SDS011;8682;52.120;5.252;2023-03-17T13:38:18;19.43;;;18.13;;
17133;SDS011;8682;52.120;5.252;2023-03-17T13:40:53;18.43;;;17.13;;
17133;SDS011;8682;52.120;5.252;2023-03-17T13:43:33;18.63;;;17.33;;
17133;SDS011;8682;52.120;5.252;2023-03-17T13:46:18;18.43;;;17.03;;
17133;SDS011;8682;52.120;5.252;2023-03-17T13:48:46;18.50;;;16.83;;
17133;SDS011;8682;52.120;5.252;2023-03-17T13:51:16;18.77;;;17.57;;
17133;SDS011;8682;52.120;5.252;2023-03-17T13:53:48;19.07;;;17.63;;
17133;SDS011;8682;52.120;5.252;2023-03-17T13:56:20;18.90;;;17.50;;
17133;SDS011;8682;52.120;5.252;2023-03-17T13:59:05;19.70;;;18.20;;
17133;SDS011;8682;52.120;5.252;2023-03-17T14:01:34;18.97;;;17.47;;
17133;SDS011;8682;52.120;5.252;2023-03-17T14:04:05;19.50;;;17.83;;
17133;SDS011;8682;52.120;5.252;2023-03-17T14:06:34;19.47;;;17.70;;
17133;SDS011;8682;52.120;5.252;2023-03-17T14:09:07;19.43;;;17.70;;
17133;SDS011;8682;52.120;5.252;2023-03-17T14:11:36;19.73;;;18.23;;
17133;SDS011;8682;52.120;5.252;2023-03-17T14:14:10;18.87;;;17.47;;
17133;SDS011;8682;52.120;5.252;2023-03-17T14:16:41;18.23;;;16.97;;
17133;SDS011;8682;52.120;5.252;2023-03-17T14:19:10;17.97;;;16.50;;
17133;SDS011;8682;52.120;5.252;2023-03-17T14:21:37;19.33;;;18.07;;
17133;SDS011;8682;52.120;5.252;2023-03-17T14:24:15;19.53;;;18.23;;
17133;SDS011;8682;52.120;5.252;2023-03-17T14:26:43;20.67;;;19.17;;
17133;SDS011;8682;52.120;5.252;2023-03-17T14:29:13;18.83;;;17.40;;
17133;SDS011;8682;52.120;5.252;2023-03-17T14:31:40;19.73;;;18.37;;
17133;SDS011;8682;52.120;5.252;2023-03-17T14:34:10;19.00;;;17.60;;
17133;SDS011;8682;52.120;5.252;2023-03-17T14:36:39;20.00;;;18.70;;
17133;SDS011;8682;52.120;5.252;2023-03-17T14:39:06;20.23;;;18.73;;
17133;SDS011;8682;52.120;5.252;2023-03-17T14:41:35;19.10;;;17.80;;
17133;SDS011;8682;52.120;5.252;2023-03-17T14:44:02;19.17;;;17.67;;
17133;SDS011;8682;52.120;5.252;2023-03-17T14:46:31;18.83;;;17.40;;
17133;SDS011;8682;52.120;5.252;2023-03-17T14:48:59;18.87;;;17.43;;
17133;SDS011;8682;52.120;5.252;2023-03-17T14:51:27;19.70;;;18.10;;
17133;SDS011;8682;52.120;5.252;2023-03-17T14:53:56;19.17;;;17.63;;
17133;SDS011;8682;52.120;5.252;2023-03-17T14:56:26;18.80;;;17.53;;
17133;SDS011;8682;52.120;5.252;2023-03-17T14:58:56;19.40;;;17.77;;
17133;SDS011;8682;52.120;5.252;2023-03-17T15:01:31;19.53;;;17.70;;
17133;SDS011;8682;52.120;5.252;2023-03-17T15:04:03;19.50;;;18.03;;
17133;SDS011;8682;52.120;5.252;2023-03-17T15:06:31;20.40;;;19.00;;
17133;SDS011;8682;52.120;5.252;2023-03-17T15:09:00;19.40;;;18.03;;
17133;SDS011;8682;52.120;5.252;2023-03-17T15:11:35;21.20;;;19.73;;
17133;SDS011;8682;52.120;5.252;2023-03-17T15:14:05;23.17;;;21.50;;
17133;SDS011;8682;52.120;5.252;2023-03-17T15:16:38;23.20;;;21.63;;
17133;SDS011;8682;52.120;5.252;2023-03-17T15:19:12;24.07;;;22.57;;
17133;SDS011;8682;52.120;5.252;2023-03-17T15:21:41;23.20;;;21.50;;
17133;SDS011;8682;52.120;5.252;2023-03-17T15:24:21;23.37;;;21.87;;
17133;SDS011;8682;52.120;5.252;2023-03-17T15:26:48;21.27;;;19.77;;
17133;SDS011;8682;52.120;5.252;2023-03-17T15:29:17;24.33;;;22.63;;
17133;SDS011;8682;52.120;5.252;2023-03-17T15:31:44;23.13;;;21.53;;
17133;SDS011;8682;52.120;5.252;2023-03-17T15:34:11;23.67;;;22.20;;
17133;SDS011;8682;52.120;5.252;2023-03-17T15:36:40;22.73;;;21.03;;
17133;SDS011;8682;52.120;5.252;2023-03-17T15:39:11;23.57;;;22.07;;
17133;SDS011;8682;52.120;5.252;2023-03-17T15:41:38;23.27;;;21.73;;
17133;SDS011;8682;52.120;5.252;2023-03-17T15:44:05;22.87;;;21.53;;
17133;SDS011;8682;52.120;5.252;2023-03-17T15:46:34;22.63;;;21.20;;
17133;SDS011;8682;52.120;5.252;2023-03-17T15:49:04;29.48;;;26.98;;
17133;SDS011;8682;52.120;5.252;2023-03-17T15:51:34;22.63;;;21.03;;
17133;SDS011;8682;52.120;5.252;2023-03-17T15:54:01;23.10;;;21.70;;
17133;SDS011;8682;52.120;5.252;2023-03-17T15:56:29;22.17;;;20.43;;
17133;SDS011;8682;52.120;5.252;2023-03-17T15:58:56;21.53;;;20.13;;
17133;SDS011;8682;52.120;5.252;2023-03-17T16:01:23;41.30;;;37.60;;
17133;SDS011;8682;52.120;5.252;2023-03-17T16:03:52;23.10;;;21.43;;
17133;SDS011;8682;52.120;5.252;2023-03-17T16:06:19;24.63;;;23.10;;
17133;SDS011;8682;52.120;5.252;2023-03-17T16:08:47;25.40;;;23.80;;
17133;SDS011;8682;52.120;5.252;2023-03-17T16:11:15;25.73;;;24.07;;
17133;SDS011;8682;52.120;5.252;2023-03-17T16:13:43;26.13;;;24.50;;
17133;SDS011;8682;52.120;5.252;2023-03-17T16:16:17;25.10;;;23.40;;
17133;SDS011;8682;52.120;5.252;2023-03-17T16:18:47;25.43;;;23.67;;
17133;SDS011;8682;52.120;5.252;2023-03-17T16:21:16;25.73;;;24.27;;
17133;SDS011;8682;52.120;5.252;2023-03-17T16:23:44;24.23;;;22.63;;
17133;SDS011;8682;52.120;5.252;2023-03-17T16:26:11;23.73;;;22.37;;
17133;SDS011;8682;52.120;5.252;2023-03-17T16:28:38;24.23;;;22.77;;
17133;SDS011;8682;52.120;5.252;2023-03-17T16:31:13;27.43;;;25.27;;
17133;SDS011;8682;52.120;5.252;2023-03-17T16:33:41;26.70;;;24.73;;
17133;SDS011;8682;52.120;5.252;2023-03-17T16:36:09;36.70;;;33.93;;
17133;SDS011;8682;52.120;5.252;2023-03-17T16:38:40;82.13;;;59.97;;
17133;SDS011;8682;52.120;5.252;2023-03-17T16:41:08;981.33;;;432.90;;
17133;SDS011;8682;52.120;5.252;2023-03-17T16:43:38;588.83;;;315.20;;
17133;SDS011;8682;52.120;5.252;2023-03-17T16:46:09;330.90;;;208.33;;
17133;SDS011;8682;52.120;5.252;2023-03-17T16:48:36;1909.57;;;636.07;;
17133;SDS011;8682;52.120;5.252;2023-03-17T16:51:03;1939.70;;;647.43;;
17133;SDS011;8682;52.120;5.252;2023-03-17T16:53:31;1999.90;;;999.90;;
17133;SDS011;8682;52.120;5.252;2023-03-17T16:55:59;1999.90;;;858.27;;
17133;SDS011;8682;52.120;5.252;2023-03-17T16:58:27;1999.90;;;999.90;;
17133;SDS011;8682;52.120;5.252;2023-03-17T17:00:56;1999.90;;;999.90;;
17133;SDS011;8682;52.120;5.252;2023-03-17T17:03:24;1999.90;;;999.90;;
17133;SDS011;8682;52.120;5.252;2023-03-17T17:05:51;1999.90;;;999.90;;
17133;SDS011;8682;52.120;5.252;2023-03-17T17:08:18;1999.90;;;999.90;;
17133;SDS011;8682;52.120;5.252;2023-03-17T17:10:46;1999.90;;;999.90;;
17133;SDS011;8682;52.120;5.252;2023-03-17T17:13:15;1999.90;;;999.90;;
17133;SDS011;8682;52.120;5.252;2023-03-17T17:15:42;1999.90;;;999.90;;
17133;SDS011;8682;52.120;5.252;2023-03-17T17:18:11;1999.90;;;999.90;;
17133;SDS011;8682;52.120;5.252;2023-03-17T17:20:39;1999.90;;;999.90;;
17133;SDS011;8682;52.120;5.252;2023-03-17T17:23:09;1999.90;;;999.90;;
17133;SDS011;8682;52.120;5.252;2023-03-17T17:25:36;1999.90;;;999.90;;
17133;SDS011;8682;52.120;5.252;2023-03-17T17:28:04;1999.90;;;999.90;;
17133;SDS011;8682;52.120;5.252;2023-03-17T17:30:33;1999.90;;;999.90;;
17133;SDS011;8682;52.120;5.252;2023-03-17T17:33:00;1999.90;;;999.90;;
17133;SDS011;8682;52.120;5.252;2023-03-17T17:35:28;1999.90;;;999.90;;
17133;SDS011;8682;52.120;5.252;2023-03-17T17:37:55;1999.90;;;999.90;;
17133;SDS011;8682;52.120;5.252;2023-03-17T17:40:23;1999.90;;;999.90;;
17133;SDS011;8682;52.120;5.252;2023-03-17T17:42:50;1999.90;;;999.90;;
17133;SDS011;8682;52.120;5.252;2023-03-17T17:45:18;1999.90;;;999.90;;
17133;SDS011;8682;52.120;5.252;2023-03-17T17:47:47;1999.90;;;999.90;;
17133;SDS011;8682;52.120;5.252;2023-03-17T17:50:16;1999.90;;;999.90;;
17133;SDS011;8682;52.120;5.252;2023-03-17T17:52:43;1999.90;;;999.90;;
17133;SDS011;8682;52.120;5.252;2023-03-17T17:55:10;1999.90;;;999.90;;